LZB973 LBSF-LBWN
Flight info
| Callsign | LZB973 |
|---|---|
| Flight time | N/A |
| Altitude | 27000 |
| Route | UMPIT4S/09 UMPIT T343 DICXA |
| Aircraft | A320/M-SDE3FGHIRWY/LB1 |
Departure
| Time | 2026-05-04 19:27 |
|---|---|
| Airport | Sofia Airport (LBSF) |
Arrival
| Time | N/A |
|---|---|
| Airport | Varna Airport (LBWN) |
| Time | Latitude | Longitude | Altitude | Speed | Heading |
|---|---|---|---|---|---|
| 2026-05-04 18:57 | 42.69041 | 23.40488 | 1747 ft | 0 kts | 196° |
| 2026-05-04 19:17 | 42.69026 | 23.40482 | 1748 ft | 8 kts | 196° |
| 2026-05-04 19:17 | 42.68982 | 23.40542 | 1750 ft | 14 kts | 104° |
| 2026-05-04 19:17 | 42.68950 | 23.40679 | 1753 ft | 16 kts | 107° |
| 2026-05-04 19:18 | 42.68913 | 23.40838 | 1749 ft | 19 kts | 107° |
| 2026-05-04 19:18 | 42.68933 | 23.40998 | 1744 ft | 18 kts | 72° |
| 2026-05-04 19:18 | 42.68976 | 23.41168 | 1745 ft | 17 kts | 64° |
| 2026-05-04 19:18 | 42.69072 | 23.41222 | 1751 ft | 17 kts | 341° |
| 2026-05-04 19:19 | 42.69189 | 23.41167 | 1750 ft | 19 kts | 341° |
| 2026-05-04 19:19 | 42.69301 | 23.41172 | 1750 ft | 17 kts | 12° |
| 2026-05-04 19:19 | 42.69427 | 23.41207 | 1753 ft | 20 kts | 11° |
| 2026-05-04 19:19 | 42.69483 | 23.41328 | 1751 ft | 18 kts | 96° |
| 2026-05-04 19:20 | 42.69471 | 23.41508 | 1753 ft | 20 kts | 95° |
| 2026-05-04 19:20 | 42.69459 | 23.41712 | 1753 ft | 23 kts | 94° |
| 2026-05-04 19:20 | 42.69446 | 23.41940 | 1749 ft | 25 kts | 94° |
| 2026-05-04 19:20 | 42.69433 | 23.42185 | 1750 ft | 25 kts | 95° |
| 2026-05-04 19:21 | 42.69419 | 23.42419 | 1751 ft | 25 kts | 94° |
| 2026-05-04 19:21 | 42.69404 | 23.42660 | 1750 ft | 25 kts | 95° |
| 2026-05-04 19:21 | 42.69390 | 23.42894 | 1753 ft | 26 kts | 95° |
| 2026-05-04 19:21 | 42.69375 | 23.43145 | 1753 ft | 28 kts | 95° |
| 2026-05-04 19:22 | 42.69359 | 23.43405 | 1753 ft | 25 kts | 95° |
| 2026-05-04 19:22 | 42.69345 | 23.43611 | 1749 ft | 20 kts | 95° |
| 2026-05-04 19:22 | 42.69334 | 23.43790 | 1766 ft | 19 kts | 95° |
| 2026-05-04 19:22 | 42.69337 | 23.43908 | 1768 ft | 10 kts | 67° |
| 2026-05-04 19:23 | 42.69381 | 23.43947 | 1773 ft | 1 kts | 6° |
| 2026-05-04 19:24 | 42.69387 | 23.43948 | 1767 ft | 6 kts | 6° |
| 2026-05-04 19:24 | 42.69467 | 23.43959 | 1766 ft | 13 kts | 6° |
| 2026-05-04 19:25 | 42.69519 | 23.43926 | 1771 ft | 6 kts | 279° |
| 2026-05-04 19:25 | 42.69519 | 23.43924 | 1768 ft | 0 kts | 277° |
| 2026-05-04 19:26 | 42.69524 | 23.43858 | 1761 ft | 25 kts | 275° |
| 2026-05-04 19:26 | 42.69561 | 23.43201 | 1755 ft | 110 kts | 275° |
| 2026-05-04 19:27 | 42.69643 | 23.41862 | 1824 ft | 166 kts | 275° |
| 2026-05-04 19:27 | 42.69745 | 23.40304 | 2629 ft | 167 kts | 278° |
| 2026-05-04 19:27 | 42.70097 | 23.38785 | 3450 ft | 171 kts | 296° |
| 2026-05-04 19:27 | 42.70767 | 23.37415 | 4133 ft | 180 kts | 312° |
| 2026-05-04 19:28 | 42.71705 | 23.36240 | 4807 ft | 188 kts | 325° |
| 2026-05-04 19:28 | 42.72851 | 23.35377 | 5539 ft | 191 kts | 340° |
| 2026-05-04 19:28 | 42.74166 | 23.34880 | 6262 ft | 201 kts | 351° |
| 2026-05-04 19:28 | 42.75573 | 23.34582 | 7046 ft | 209 kts | 354° |
| 2026-05-04 19:29 | 42.77038 | 23.34321 | 7894 ft | 215 kts | 356° |
| 2026-05-04 19:29 | 42.78540 | 23.34096 | 8807 ft | 219 kts | 357° |
| 2026-05-04 19:29 | 42.80064 | 23.33844 | 9769 ft | 223 kts | 357° |
| 2026-05-04 19:29 | 42.81608 | 23.33584 | 10773 ft | 220 kts | 358° |
| 2026-05-04 19:30 | 42.83094 | 23.33354 | 11884 ft | 211 kts | 358° |
| 2026-05-04 19:30 | 42.84569 | 23.33412 | 12587 ft | 215 kts | 23° |
| 2026-05-04 19:30 | 42.85689 | 23.34703 | 13289 ft | 219 kts | 64° |
| 2026-05-04 19:30 | 42.85862 | 23.36775 | 14045 ft | 232 kts | 99° |
| 2026-05-04 19:31 | 42.85343 | 23.38898 | 14791 ft | 239 kts | 105° |
| 2026-05-04 19:31 | 42.84804 | 23.41047 | 15581 ft | 242 kts | 105° |
| 2026-05-04 19:31 | 42.84256 | 23.43223 | 16388 ft | 244 kts | 105° |
| 2026-05-04 19:31 | 42.83738 | 23.45491 | 16925 ft | 258 kts | 98° |
| 2026-05-04 19:32 | 42.83466 | 23.47966 | 17469 ft | 271 kts | 94° |
| 2026-05-04 19:32 | 42.83270 | 23.50581 | 18027 ft | 285 kts | 92° |
| 2026-05-04 19:32 | 42.83089 | 23.53376 | 18346 ft | 308 kts | 92° |
| 2026-05-04 19:32 | 42.82894 | 23.56390 | 18535 ft | 331 kts | 93° |
| 2026-05-04 19:33 | 42.82672 | 23.59621 | 18664 ft | 354 kts | 94° |
| 2026-05-04 19:33 | 42.82420 | 23.63061 | 18840 ft | 374 kts | 94° |
| 2026-05-04 19:33 | 42.82144 | 23.66635 | 19324 ft | 383 kts | 94° |
| 2026-05-04 19:33 | 42.81854 | 23.70262 | 19917 ft | 387 kts | 94° |
| 2026-05-04 19:34 | 42.81555 | 23.73925 | 20526 ft | 392 kts | 94° |
| 2026-05-04 19:34 | 42.81251 | 23.77630 | 21139 ft | 396 kts | 94° |
| 2026-05-04 19:34 | 42.80944 | 23.81377 | 21740 ft | 400 kts | 94° |
| 2026-05-04 19:34 | 42.80641 | 23.85120 | 22305 ft | 405 kts | 94° |
| 2026-05-04 19:35 | 42.80332 | 23.88951 | 22869 ft | 409 kts | 94° |
| 2026-05-04 19:35 | 42.80017 | 23.92822 | 23234 ft | 413 kts | 94° |
| 2026-05-04 19:35 | 42.79890 | 23.96726 | 23756 ft | 414 kts | 83° |
| 2026-05-04 19:35 | 42.80368 | 24.00599 | 24246 ft | 416 kts | 77° |
| 2026-05-04 19:36 | 42.80927 | 24.04478 | 24720 ft | 419 kts | 77° |
| 2026-05-04 19:36 | 42.81496 | 24.08384 | 25219 ft | 421 kts | 77° |
| 2026-05-04 19:36 | 42.82065 | 24.12295 | 25711 ft | 424 kts | 76° |
| 2026-05-04 19:36 | 42.82639 | 24.16242 | 26171 ft | 427 kts | 77° |
| 2026-05-04 19:37 | 42.83216 | 24.20222 | 26623 ft | 430 kts | 76° |
| 2026-05-04 19:37 | 42.83795 | 24.24232 | 27012 ft | 433 kts | 77° |
| 2026-05-04 19:37 | 42.84371 | 24.28258 | 27109 ft | 434 kts | 77° |
| 2026-05-04 19:37 | 42.84944 | 24.32308 | 27123 ft | 435 kts | 77° |
| 2026-05-04 19:38 | 42.85514 | 24.36362 | 27123 ft | 435 kts | 78° |
| 2026-05-04 19:38 | 42.86082 | 24.40408 | 27125 ft | 436 kts | 78° |
| 2026-05-04 19:38 | 42.86656 | 24.44469 | 27122 ft | 435 kts | 77° |
| 2026-05-04 19:38 | 42.87228 | 24.48516 | 27121 ft | 435 kts | 76° |
| 2026-05-04 19:39 | 42.87801 | 24.52569 | 27123 ft | 435 kts | 77° |
| 2026-05-04 19:39 | 42.88373 | 24.56625 | 27121 ft | 435 kts | 77° |
| 2026-05-04 19:39 | 42.88940 | 24.60665 | 27117 ft | 435 kts | 77° |
| 2026-05-04 19:39 | 42.89507 | 24.64713 | 27118 ft | 434 kts | 77° |
| 2026-05-04 19:40 | 42.90071 | 24.68760 | 27110 ft | 434 kts | 77° |
| 2026-05-04 19:40 | 42.90632 | 24.72806 | 27108 ft | 434 kts | 77° |
| 2026-05-04 19:40 | 42.91190 | 24.76852 | 27107 ft | 434 kts | 77° |
| 2026-05-04 19:40 | 42.91746 | 24.80898 | 27098 ft | 434 kts | 77° |
| 2026-05-04 19:41 | 42.92299 | 24.84946 | 27100 ft | 434 kts | 77° |
| 2026-05-04 19:41 | 42.92852 | 24.88995 | 27099 ft | 434 kts | 77° |
| 2026-05-04 19:41 | 42.93405 | 24.93044 | 27095 ft | 434 kts | 77° |
| 2026-05-04 19:41 | 42.93959 | 24.97094 | 27102 ft | 434 kts | 77° |
| 2026-05-04 19:42 | 42.94511 | 25.01138 | 27101 ft | 433 kts | 78° |
| 2026-05-04 19:42 | 42.95058 | 25.05156 | 27103 ft | 433 kts | 78° |
| 2026-05-04 19:42 | 42.95607 | 25.09201 | 27098 ft | 433 kts | 78° |
| 2026-05-04 19:42 | 42.96153 | 25.13242 | 27096 ft | 433 kts | 78° |
| 2026-05-04 19:43 | 42.96697 | 25.17290 | 27091 ft | 433 kts | 78° |
| 2026-05-04 19:43 | 42.97240 | 25.21340 | 27090 ft | 434 kts | 78° |
| 2026-05-04 19:43 | 42.97783 | 25.25383 | 27078 ft | 434 kts | 78° |
| 2026-05-04 19:43 | 42.98325 | 25.29442 | 27081 ft | 434 kts | 78° |
| 2026-05-04 19:44 | 42.98863 | 25.33486 | 27074 ft | 434 kts | 78° |
| 2026-05-04 19:44 | 42.99399 | 25.37531 | 27076 ft | 434 kts | 78° |
| 2026-05-04 19:44 | 42.99936 | 25.41592 | 27066 ft | 434 kts | 78° |
| 2026-05-04 19:44 | 43.00468 | 25.45633 | 27059 ft | 434 kts | 78° |
| 2026-05-04 19:45 | 43.01004 | 25.49688 | 27051 ft | 434 kts | 78° |
| 2026-05-04 19:45 | 43.01537 | 25.53741 | 27051 ft | 434 kts | 78° |
| 2026-05-04 19:45 | 43.02062 | 25.57761 | 27060 ft | 434 kts | 78° |
| 2026-05-04 19:45 | 43.02588 | 25.61818 | 27056 ft | 434 kts | 78° |
| 2026-05-04 19:46 | 43.03111 | 25.65869 | 27050 ft | 433 kts | 78° |